Fure West — OZ2100 — position and weather

sailwx.info

Track history (hours):
 
Tides and Currents Weather Stations Pressure Air Temp Water Temp Dewpoint Dewpoint Depression Visibility Wind Speed Wind Dir Waves Ship Positions

Fure West

Last reported at 2014-Oct-02 15:25 UTC. Time now 2014-Oct-02 16:40 UTC.
Position N 54°59' E 017°59'.

Length 144 m; draft 8.9 m.

Type: Tanker. MMSI: 231775000.

Date/timePositionNaut miles runAvg speedWind from/ knotsBaromVisibWave heightAir tempDewpointWater temp
2014-Oct-02 15:25N 54°59' E 017°59'1112.4
2014-Oct-02 14:33N 54°59' E 018°18'1212.5
2014-Oct-02 13:33N 54°57' E 018°39'1212.4
2014-Oct-02 12:33N 54°53' E 018°60'1212.3
2014-Oct-02 11:33N 54°50' E 019°20'1312.6
2014-Oct-02 10:33N 54°44' E 019°39'1110.6
2014-Oct-02 09:33N 54°38' E 019°55'6 6.4
2014-Oct-02 08:33N 54°39' E 020°06'0 0.0
2014-Oct-01 13:33N 54°39' E 020°06'8 7.5
2014-Oct-01 12:33N 54°38' E 019°53'8 8.4
2014-Oct-01 11:33N 54°43' E 019°41'5 5.1
2014-Oct-01 10:33N 54°45' E 019°34'9 9.5
2014-Oct-01 09:33N 54°48' E 019°18'1010.0
2014-Oct-01 08:33N 54°52' E 019°02'10 9.7
2014-Oct-01 07:33N 54°55' E 018°46'10 9.5
2014-Oct-01 06:33N 54°58' E 018°30'10 9.9
2014-Oct-01 05:33N 54°57' E 018°13'10 9.9
2014-Oct-01 04:33N 54°57' E 017°56'10 9.8
2014-Oct-01 03:33N 54°56' E 017°39'1010.0
2014-Oct-01 02:33N 54°53' E 017°22'11 9.9
2014-Oct-01 01:23N 54°50' E 017°03'910.2
2014-Oct-01 00:33N 54°48' E 016°48'2110.2
2014-Sep-30 22:33N 54°45' E 016°13'4110.2
2014-Sep-30 18:33N 54°39' E 015°03'1110.0
2014-Sep-30 17:29N 54°37' E 014°45'1010.1
2014-Sep-30 16:30N 54°36' E 014°28'9 9.6
2014-Sep-30 15:33N 54°38' E 014°12'1110.6
2014-Sep-30 14:33N 54°41' E 013°55'1111.0
2014-Sep-30 13:33N 54°44' E 013°37'1010.0
2014-Sep-30 12:33N 54°45' E 013°20'10 9.9
2014-Sep-30 11:33N 54°45' E 013°03'1110.7
2014-Sep-30 10:33N 54°44' E 012°44'9 8.5
2014-Sep-30 09:33N 54°39' E 012°32'9 8.6
2014-Sep-30 08:33N 54°34' E 012°20'9 8.5
2014-Sep-30 07:33N 54°26' E 012°13'8 7.7
2014-Sep-30 06:33N 54°25' E 012°00'8 8.2
2014-Sep-30 05:34N 54°25' E 011°46'9 8.6
2014-Sep-30 04:33N 54°29' E 011°33'9 8.7
2014-Sep-30 03:33N 54°33' E 011°19'10 9.9
2014-Sep-30 02:33N 54°37' E 011°04'11 8.5
2014-Sep-30 01:18N 54°45' E 010°50'20 0.5
2014-Sep-28 08:26N 55°03' E 011°02'2210.8
2014-Sep-28 06:23N 54°42' E 010°54'911.0
2014-Sep-28 05:34N 54°37' E 011°08'1110.6
2014-Sep-28 04:33N 54°32' E 011°24'1110.5
2014-Sep-28 03:33N 54°28' E 011°40'1010.1
2014-Sep-28 02:33N 54°26' E 011°57'10 9.3
2014-Sep-28 01:32N 54°30' E 012°13'1010.6
2014-Sep-28 00:33N 54°39' E 012°20'1110.7
2014-Sep-27 23:31N 54°45' E 012°36'1110.7
2014-Sep-27 22:32N 54°47' E 012°54'1311.7
2014-Sep-27 21:24N 54°47' E 013°17'1011.3
2014-Sep-27 20:33N 54°46' E 013°33'1111.0
2014-Sep-27 19:34N 54°43' E 013°52'1111.3
2014-Sep-27 18:33N 54°40' E 014°10'132 9.3
2014-Sep-27 04:23N 54°57' E 017°58'7 8.8
2014-Sep-27 03:33N 54°57' E 018°11'9 8.8
2014-Sep-27 02:34N 54°57' E 018°26'9 8.8
2014-Sep-27 01:33N 54°56' E 018°41'9 9.2
2014-Sep-27 00:34N 54°54' E 018°57'9 9.4
2014-Sep-26 23:34N 54°51' E 019°12'10 9.9
2014-Sep-26 22:33N 54°47' E 019°28'1010.1
2014-Sep-26 21:33N 54°42' E 019°44'13 0.6
2014-Sep-25 23:33N 54°39' E 020°06'8 7.6
2014-Sep-25 22:33N 54°38' E 019°53'4 3.4
2014-Sep-25 21:31N 54°40' E 019°48'0 0.1
2014-Sep-25 20:31N 54°40' E 019°48'0 0.1
2014-Sep-25 19:19N 54°40' E 019°48'0 0.0
2014-Sep-25 18:28N 54°40' E 019°48'0 0.0
2014-Sep-25 17:25N 54°40' E 019°48'0 0.0
2014-Sep-25 16:28N 54°40' E 019°48'0 0.1
2014-Sep-25 15:17N 54°40' E 019°47'2 3.1
2014-Sep-25 14:33N 54°41' E 019°44'8 7.9
2014-Sep-25 13:33N 54°45' E 019°33'9 9.5
2014-Sep-25 12:34N 54°46' E 019°16'10 9.9
2014-Sep-25 11:34N 54°51' E 019°02'10 9.6
2014-Sep-25 10:33N 54°54' E 018°46'9 9.2
2014-Sep-25 09:34N 54°57' E 018°31'9 9.4
2014-Sep-25 08:34N 54°59' E 018°15'9 9.5
2014-Sep-25 07:34N 55°01' E 017°58'79 8.8
2014-Sep-24 22:33N 55°18' E 015°43'9 8.6
2014-Sep-24 21:33N 55°20' E 015°29'9 8.6
2014-Sep-24 20:33N 55°22' E 015°14'9 8.5
2014-Sep-24 19:33N 55°22' E 014°59'9 8.5
2014-Sep-24 18:33N 55°23' E 014°44'8 8.0
2014-Sep-24 17:33N 55°19' E 014°32'9 9.2
2014-Sep-24 16:33N 55°12' E 014°22'8 7.5
2014-Sep-24 15:33N 55°10' E 014°09'9 8.6
2014-Sep-24 14:33N 55°10' E 013°54'9 8.6
2014-Sep-24 13:31N 55°11' E 013°39'10 8.4
2014-Sep-24 12:21N 55°11' E 013°21'7 9.1
2014-Sep-24 11:33N 55°13' E 013°09'1010.0
2014-Sep-24 10:34N 55°15' E 012°52'9 9.3
2014-Sep-24 09:33N 55°19' E 012°38'8 8.5
2014-Sep-24 08:34N 55°28' E 012°41'9 8.9
2014-Sep-24 07:34N 55°35' E 012°50'8 8.0
2014-Sep-24 06:34N 55°42' E 012°57'0 0.1
2014-Sep-24 05:33N 55°42' E 012°57'0 0.0
2014-Sep-24 04:33N 55°42' E 012°57'0 0.0
2014-Sep-24 03:33N 55°42' E 012°57'0 0.0
2014-Sep-24 02:33N 55°42' E 012°57'0 0.0
2014-Sep-24 01:33N 55°42' E 012°57'0 0.0
2014-Sep-24 00:33N 55°42' E 012°57'0 0.0
2014-Sep-23 23:33N 55°42' E 012°57'0 0.0
2014-Sep-23 22:33N 55°42' E 012°57'0 0.0
2014-Sep-23 21:30N 55°42' E 012°57'0 0.1
2014-Sep-23 20:33N 55°42' E 012°57'0 0.0
2014-Sep-23 19:33N 55°42' E 012°57'0 0.0
2014-Sep-23 18:30N 55°42' E 012°57'0 0.0
2014-Sep-23 17:33N 55°42' E 012°57'0 0.0
2014-Sep-23 16:33N 55°42' E 012°57'0 0.0
2014-Sep-23 15:33N 55°42' E 012°57'0 0.0
2014-Sep-23 14:33N 55°42' E 012°57'0 0.0
2014-Sep-23 13:33N 55°42' E 012°57'0 0.1
2014-Sep-23 12:33N 55°42' E 012°57'0 0.0
2014-Sep-23 11:33N 55°42' E 012°57'0 0.0
2014-Sep-23 10:33N 55°42' E 012°57'0 0.1
2014-Sep-23 09:33N 55°42' E 012°57'0 0.1
2014-Sep-23 08:33N 55°42' E 012°57'0 0.0
2014-Sep-23 07:33N 55°42' E 012°57'0 0.0
2014-Sep-23 06:33N 55°42' E 012°57'0 0.0
2014-Sep-23 05:33N 55°42' E 012°57'0 0.0
2014-Sep-23 04:33N 55°42' E 012°57'0 0.0
2014-Sep-23 03:33N 55°42' E 012°57'0 0.0
2014-Sep-23 02:33N 55°42' E 012°57'0 0.0
2014-Sep-23 01:33N 55°42' E 012°57'0 0.0
2014-Sep-23 00:33N 55°42' E 012°57'0 0.0
2014-Sep-22 23:33N 55°42' E 012°57'0 0.0
2014-Sep-22 22:33N 55°42' E 012°57'0 0.0
2014-Sep-22 21:33N 55°42' E 012°57'0 0.0
2014-Sep-22 20:33N 55°42' E 012°57'0 0.0
2014-Sep-22 19:33N 55°42' E 012°57'0 0.0
2014-Sep-22 18:33N 55°42' E 012°57'0 0.0
2014-Sep-22 17:33N 55°42' E 012°57'0 0.0
2014-Sep-22 16:33N 55°42' E 012°57'0 0.0
2014-Sep-22 15:33N 55°42' E 012°57'  
Track history (hours):
 
Tides and Currents Weather Stations Pressure Air Temp Water Temp Dewpoint Dewpoint Depression Visibility Wind Speed Wind Dir Waves Ship Positions

Fure West

Last reported at 2014-Oct-02 15:25 UTC. Time now 2014-Oct-02 16:40 UTC.
Position N 54°59' E 017°59'.

Length 144 m; draft 8.9 m.

Type: Tanker. MMSI: 231775000.

Date/timePositionNaut miles runAvg speedWind from/ knotsBaromVisibWave heightAir tempDewpointWater temp
2014-Oct-02 15:25N 54°59' E 017°59'1112.4
2014-Oct-02 14:33N 54°59' E 018°18'1212.5
2014-Oct-02 13:33N 54°57' E 018°39'1212.4
2014-Oct-02 12:33N 54°53' E 018°60'1212.3
2014-Oct-02 11:33N 54°50' E 019°20'1312.6
2014-Oct-02 10:33N 54°44' E 019°39'1110.6
2014-Oct-02 09:33N 54°38' E 019°55'6 6.4
2014-Oct-02 08:33N 54°39' E 020°06'0 0.0
2014-Oct-01 13:33N 54°39' E 020°06'8 7.5
2014-Oct-01 12:33N 54°38' E 019°53'8 8.4
2014-Oct-01 11:33N 54°43' E 019°41'5 5.1
2014-Oct-01 10:33N 54°45' E 019°34'9 9.5
2014-Oct-01 09:33N 54°48' E 019°18'1010.0
2014-Oct-01 08:33N 54°52' E 019°02'10 9.7
2014-Oct-01 07:33N 54°55' E 018°46'10 9.5
2014-Oct-01 06:33N 54°58' E 018°30'10 9.9
2014-Oct-01 05:33N 54°57' E 018°13'10 9.9
2014-Oct-01 04:33N 54°57' E 017°56'10 9.8
2014-Oct-01 03:33N 54°56' E 017°39'1010.0
2014-Oct-01 02:33N 54°53' E 017°22'11 9.9
2014-Oct-01 01:23N 54°50' E 017°03'910.2
2014-Oct-01 00:33N 54°48' E 016°48'2110.2
2014-Sep-30 22:33N 54°45' E 016°13'4110.2
2014-Sep-30 18:33N 54°39' E 015°03'1110.0
2014-Sep-30 17:29N 54°37' E 014°45'1010.1
2014-Sep-30 16:30N 54°36' E 014°28'9 9.6
2014-Sep-30 15:33N 54°38' E 014°12'1110.6
2014-Sep-30 14:33N 54°41' E 013°55'1111.0
2014-Sep-30 13:33N 54°44' E 013°37'1010.0
2014-Sep-30 12:33N 54°45' E 013°20'10 9.9
2014-Sep-30 11:33N 54°45' E 013°03'1110.7
2014-Sep-30 10:33N 54°44' E 012°44'9 8.5
2014-Sep-30 09:33N 54°39' E 012°32'9 8.6
2014-Sep-30 08:33N 54°34' E 012°20'9 8.5
2014-Sep-30 07:33N 54°26' E 012°13'8 7.7
2014-Sep-30 06:33N 54°25' E 012°00'8 8.2
2014-Sep-30 05:34N 54°25' E 011°46'9 8.6
2014-Sep-30 04:33N 54°29' E 011°33'9 8.7
2014-Sep-30 03:33N 54°33' E 011°19'10 9.9
2014-Sep-30 02:33N 54°37' E 011°04'11 8.5
2014-Sep-30 01:18N 54°45' E 010°50'20 0.5
2014-Sep-28 08:26N 55°03' E 011°02'2210.8
2014-Sep-28 06:23N 54°42' E 010°54'911.0
2014-Sep-28 05:34N 54°37' E 011°08'1110.6
2014-Sep-28 04:33N 54°32' E 011°24'1110.5
2014-Sep-28 03:33N 54°28' E 011°40'1010.1
2014-Sep-28 02:33N 54°26' E 011°57'10 9.3
2014-Sep-28 01:32N 54°30' E 012°13'1010.6
2014-Sep-28 00:33N 54°39' E 012°20'1110.7
2014-Sep-27 23:31N 54°45' E 012°36'1110.7
2014-Sep-27 22:32N 54°47' E 012°54'1311.7
2014-Sep-27 21:24N 54°47' E 013°17'1011.3
2014-Sep-27 20:33N 54°46' E 013°33'1111.0
2014-Sep-27 19:34N 54°43' E 013°52'1111.3
2014-Sep-27 18:33N 54°40' E 014°10'132 9.3
2014-Sep-27 04:23N 54°57' E 017°58'7 8.8
2014-Sep-27 03:33N 54°57' E 018°11'9 8.8
2014-Sep-27 02:34N 54°57' E 018°26'9 8.8
2014-Sep-27 01:33N 54°56' E 018°41'9 9.2
2014-Sep-27 00:34N 54°54' E 018°57'9 9.4
2014-Sep-26 23:34N 54°51' E 019°12'10 9.9
2014-Sep-26 22:33N 54°47' E 019°28'1010.1
2014-Sep-26 21:33N 54°42' E 019°44'13 0.6
2014-Sep-25 23:33N 54°39' E 020°06'8 7.6
2014-Sep-25 22:33N 54°38' E 019°53'4 3.4
2014-Sep-25 21:31N 54°40' E 019°48'0 0.1
2014-Sep-25 20:31N 54°40' E 019°48'0 0.1
2014-Sep-25 19:19N 54°40' E 019°48'0 0.0
2014-Sep-25 18:28N 54°40' E 019°48'0 0.0
2014-Sep-25 17:25N 54°40' E 019°48'0 0.0
2014-Sep-25 16:28N 54°40' E 019°48'0 0.1
2014-Sep-25 15:17N 54°40' E 019°47'2 3.1
2014-Sep-25 14:33N 54°41' E 019°44'8 7.9
2014-Sep-25 13:33N 54°45' E 019°33'9 9.5
2014-Sep-25 12:34N 54°46' E 019°16'10 9.9
2014-Sep-25 11:34N 54°51' E 019°02'10 9.6
2014-Sep-25 10:33N 54°54' E 018°46'9 9.2
2014-Sep-25 09:34N 54°57' E 018°31'9 9.4
2014-Sep-25 08:34N 54°59' E 018°15'9 9.5
2014-Sep-25 07:34N 55°01' E 017°58'79 8.8
2014-Sep-24 22:33N 55°18' E 015°43'9 8.6
2014-Sep-24 21:33N 55°20' E 015°29'9 8.6
2014-Sep-24 20:33N 55°22' E 015°14'9 8.5
2014-Sep-24 19:33N 55°22' E 014°59'9 8.5
2014-Sep-24 18:33N 55°23' E 014°44'8 8.0
2014-Sep-24 17:33N 55°19' E 014°32'9 9.2
2014-Sep-24 16:33N 55°12' E 014°22'8 7.5
2014-Sep-24 15:33N 55°10' E 014°09'9 8.6
2014-Sep-24 14:33N 55°10' E 013°54'9 8.6
2014-Sep-24 13:31N 55°11' E 013°39'10 8.4
2014-Sep-24 12:21N 55°11' E 013°21'7 9.1
2014-Sep-24 11:33N 55°13' E 013°09'1010.0
2014-Sep-24 10:34N 55°15' E 012°52'9 9.3
2014-Sep-24 09:33N 55°19' E 012°38'8 8.5
2014-Sep-24 08:34N 55°28' E 012°41'9 8.9
2014-Sep-24 07:34N 55°35' E 012°50'8 8.0
2014-Sep-24 06:34N 55°42' E 012°57'0 0.1
2014-Sep-24 05:33N 55°42' E 012°57'0 0.0
2014-Sep-24 04:33N 55°42' E 012°57'0 0.0
2014-Sep-24 03:33N 55°42' E 012°57'0 0.0
2014-Sep-24 02:33N 55°42' E 012°57'0 0.0
2014-Sep-24 01:33N 55°42' E 012°57'0 0.0
2014-Sep-24 00:33N 55°42' E 012°57'0 0.0
2014-Sep-23 23:33N 55°42' E 012°57'0 0.0
2014-Sep-23 22:33N 55°42' E 012°57'0 0.0
2014-Sep-23 21:30N 55°42' E 012°57'0 0.1
2014-Sep-23 20:33N 55°42' E 012°57'0 0.0
2014-Sep-23 19:33N 55°42' E 012°57'0 0.0
2014-Sep-23 18:30N 55°42' E 012°57'0 0.0
2014-Sep-23 17:33N 55°42' E 012°57'0 0.0
2014-Sep-23 16:33N 55°42' E 012°57'0 0.0
2014-Sep-23 15:33N 55°42' E 012°57'0 0.0
2014-Sep-23 14:33N 55°42' E 012°57'0 0.0
2014-Sep-23 13:33N 55°42' E 012°57'0 0.1
2014-Sep-23 12:33N 55°42' E 012°57'0 0.0
2014-Sep-23 11:33N 55°42' E 012°57'0 0.0
2014-Sep-23 10:33N 55°42' E 012°57'0 0.1
2014-Sep-23 09:33N 55°42' E 012°57'0 0.1
2014-Sep-23 08:33N 55°42' E 012°57'0 0.0
2014-Sep-23 07:33N 55°42' E 012°57'0 0.0
2014-Sep-23 06:33N 55°42' E 012°57'0 0.0
2014-Sep-23 05:33N 55°42' E 012°57'0 0.0
2014-Sep-23 04:33N 55°42' E 012°57'0 0.0
2014-Sep-23 03:33N 55°42' E 012°57'0 0.0
2014-Sep-23 02:33N 55°42' E 012°57'0 0.0
2014-Sep-23 01:33N 55°42' E 012°57'0 0.0
2014-Sep-23 00:33N 55°42' E 012°57'0 0.0
2014-Sep-22 23:33N 55°42' E 012°57'0 0.0
2014-Sep-22 22:33N 55°42' E 012°57'0 0.0
2014-Sep-22 21:33N 55°42' E 012°57'0 0.0
2014-Sep-22 20:33N 55°42' E 012°57'0 0.0
2014-Sep-22 19:33N 55°42' E 012°57'0 0.0
2014-Sep-22 18:33N 55°42' E 012°57'0 0.0
2014-Sep-22 17:33N 55°42' E 012°57'0 0.0
2014-Sep-22 16:33N 55°42' E 012°57'0 0.0
2014-Sep-22 15:33N 55°42' E 012°57'  

Dump ship's entire track history